Corinth, Vermont
Current Conditions -  °F | °C
As of 4:51 AM on Friday 31 Oct 2014 (Local Time) from KMPV Reporting Station
Overcast Overcast  
Wind Chill: 38°   Ceiling: 2300
Heat Index: 38°   Visibility: 10mi
Dew Point: 33°   Wind: 0mph
Humidity: 83%   Direction: NA
Pressure: 30.04"   Gusts: NA
Location:  44.02°N, 72.3°W
Report Text: KMPV 310851Z AUTO 00000KT 10SM BKN023 OVC036 03/01 A3004 RMK AO2 SLP181 T00330006 53002 $
Loading
Personal Weather Stations






























Interactive Weather Map
Tropical Storm Tracking
New forecast layout! Learn more

10-Day Weather Forecast

Advertisements
Track Severe Weather on mobile